Time;durP1;ratioP1;P1;durP2;ratioP2;P2;SDS_P1;SDS_P2;PMS_P1;PMS_P2;Temp;Humidity;BMP_temperature;BMP_pressure;BME280_temperature;BME280_humidity;BME280_pressure;Samples;Min_cycle;Max_cycle;Signal;HPM_P1;HPM_P2
2021/03/16 00:00:41;;;;;;;;;;;-0.80;99.90;;;;;;5091239;28;19919;-54
2021/03/16 00:03:06;;;;;;;;;;;-0.80;99.90;;;;;;5091743;28;19911;-53
2021/03/16 00:05:32;;;;;;;;;;;-0.90;99.90;;;;;;5091388;28;20392;-54
2021/03/16 00:07:58;;;;;;;;;;;-0.90;99.90;;;;;;5091732;28;19916;-52
2021/03/16 00:10:24;;;;;;;;;;;-0.90;99.90;;;;;;5090851;28;20007;-52
2021/03/16 00:12:50;;;;;;;;;;;-0.90;99.90;;;;;;5091316;28;19935;-54
2021/03/16 00:15:16;;;;;;;;;;;-0.80;99.90;;;;;;5090833;28;20364;-51
2021/03/16 00:17:42;;;;;;;;;;;-0.90;99.90;;;;;;5091080;28;19920;-50
2021/03/16 00:20:08;;;;;;;;;;;-0.80;99.90;;;;;;5072527;28;20434;-52
2021/03/16 00:22:34;;;;;;;;;;;-0.80;99.90;;;;;;5090942;28;19919;-53
2021/03/16 00:25:00;;;;;;;;;;;-0.80;99.90;;;;;;5091205;28;20394;-56
2021/03/16 00:27:26;;;;;;;;;;;-0.80;99.90;;;;;;5090962;28;19991;-53
2021/03/16 00:29:52;;;;;;;;;;;-0.80;99.90;;;;;;5091150;28;19947;-51
2021/03/16 00:32:18;;;;;;;;;;;-0.80;99.90;;;;;;5091398;28;20364;-52
2021/03/16 00:34:44;;;;;;;;;;;-0.80;99.90;;;;;;5091309;28;19912;-51
2021/03/16 00:37:10;;;;;;;;;;;-0.90;99.90;;;;;;5091285;28;19935;-53
2021/03/16 00:39:36;;;;;;;;;;;-0.90;99.90;;;;;;5091175;28;19912;-54
2021/03/16 00:42:02;;;;;;;;;;;-0.90;99.90;;;;;;5091181;28;19912;-50
2021/03/16 00:44:28;;;;;;;;;;;-0.90;99.90;;;;;;5072633;28;19931;-52
2021/03/16 00:46:54;;;;;;;;;;;-1.00;99.90;;;;;;5090827;28;20319;-53
2021/03/16 00:49:20;;;;;;;;;;;-1.10;99.90;;;;;;5091052;28;20423;-52
2021/03/16 00:51:46;;;;;;;;;;;-1.10;99.90;;;;;;5091160;28;19920;-54
2021/03/16 00:54:12;;;;;;;;;;;-1.10;99.90;;;;;;5091331;28;20329;-54
2021/03/16 00:56:37;;;;;;;;;;;-1.10;99.90;;;;;;5090650;28;19924;-53
2021/03/16 00:59:03;;;;;;;;;;;-1.10;99.90;;;;;;5091178;28;19912;-54
2021/03/16 01:01:29;;;;;;;;;;;-1.20;99.90;;;;;;5090749;28;19931;-54
2021/03/16 01:03:55;;;;;;;;;;;-1.20;99.90;;;;;;5093460;28;19947;-53
2021/03/16 01:06:21;;;;;;;;;;;-1.20;99.90;;;;;;5094947;28;20372;-52
2021/03/16 01:08:47;;;;;;;;;;;-1.20;99.90;;;;;;5094666;28;19919;-52
2021/03/16 01:11:13;;;;;;;;;;;-1.20;99.90;;;;;;5095010;28;19912;-53
2021/03/16 01:16:42;;;;;;;;;;;-1.10;99.90;;;;;;5099895;28;19943;-55
2021/03/16 01:19:08;;;;;;;;;;;-1.20;99.90;;;;;;5093550;28;20344;-54
2021/03/16 01:21:35;;;;;;;8.15;3.80;;;-1.20;99.90;;;;;;5093152;28;20900;-56
2021/03/16 01:24:01;;;;;;;9.00;3.90;;;-1.20;99.90;;;;;;5074530;28;20384;-54
2021/03/16 01:26:27;;;;;;;7.65;3.63;;;-1.20;99.90;;;;;;5092687;28;20391;-55
2021/03/16 01:28:53;;;;;;;9.05;4.07;;;-1.10;99.90;;;;;;5092752;28;20507;-55
2021/03/16 01:31:19;;;;;;;9.45;3.88;;;-1.20;99.90;;;;;;5093194;28;20391;-55
2021/03/16 01:33:45;;;;;;;6.40;3.33;;;-1.20;99.90;;;;;;5092810;28;20387;-55
2021/03/16 01:36:11;;;;;;;7.03;3.67;;;-1.20;99.90;;;;;;5074555;28;20411;-55
2021/03/16 01:38:38;;;;;;;9.47;3.37;;;-1.20;99.90;;;;;;5092729;28;20368;-55
2021/03/16 01:41:04;;;;;;;12.02;3.70;;;-1.30;99.90;;;;;;5092871;28;20381;-55
2021/03/16 01:43:31;;;;;;;7.60;4.13;;;-1.30;99.90;;;;;;5092386;28;20388;-55
2021/03/16 01:45:57;;;;;;;9.23;3.75;;;-1.40;99.90;;;;;;5091780;28;20400;-55
2021/03/16 01:48:34;;;;;;;10.98;4.30;;;-1.40;99.90;;;;;;5091988;28;20411;-56
2021/03/16 01:51:01;;;;;;;8.10;3.73;;;-1.40;99.90;;;;;;5092220;28;20903;-56
2021/03/16 01:53:27;;;;;;;8.27;4.05;;;-1.40;99.90;;;;;;5092606;28;20474;-56
2021/03/16 01:55:54;;;;;;;9.33;4.03;;;-1.50;99.90;;;;;;5090172;28;20919;-55
2021/03/16 01:58:20;;;;;;;7.55;3.97;;;-1.50;99.90;;;;;;5091292;28;20392;-54
2021/03/16 02:00:46;;;;;;;10.38;4.57;;;-1.50;99.90;;;;;;5091986;28;20404;-56
2021/03/16 02:03:12;;;;;;;9.68;3.83;;;-1.50;99.90;;;;;;5089531;28;20384;-55
2021/03/16 02:05:43;;;;;;;12.27;4.15;;;-1.60;99.90;;;;;;5092154;28;20392;-52
2021/03/16 02:08:31;;;;;;;10.37;4.30;;;-1.60;99.90;;;;;;5074832;28;20411;-55
2021/03/16 02:11:23;;;;;;;10.05;4.00;;;-1.60;99.90;;;;;;5092043;28;20395;-54
2021/03/16 02:14:13;;;;;;;11.25;4.47;;;-1.60;99.90;;;;;;5060102;28;20376;-55
2021/03/16 02:16:54;;;;;;;9.40;4.05;;;-1.60;99.90;;;;;;5055656;28;20404;-52
2021/03/16 02:19:40;;;;;;;8.05;3.72;;;-1.60;99.90;;;;;;5056941;28;20733;-53
2021/03/16 02:22:06;;;;;;;12.30;4.43;;;-1.50;99.90;;;;;;5074225;28;20383;-54
2021/03/16 02:25:09;;;;;;;9.27;4.00;;;-1.50;99.90;;;;;;5057071;28;20702;-55
2021/03/16 02:28:03;;;;;;;10.53;4.10;;;-1.50;99.90;;;;;;5091444;28;20389;-57
2021/03/16 02:30:29;;;;;;;10.75;4.35;;;-1.50;99.90;;;;;;5074290;28;20415;-56
2021/03/16 02:32:56;;;;;;;9.15;4.32;;;-1.50;99.90;;;;;;5057060;28;20399;-56
2021/03/16 02:35:22;;;;;;;10.95;4.18;;;-1.50;99.90;;;;;;5073465;28;20388;-56
2021/03/16 02:37:48;;;;;;;8.17;4.47;;;-1.60;99.90;;;;;;5073381;28;20396;-56
2021/03/16 02:40:16;;;;;;;9.18;4.65;;;-1.60;99.90;;;;;;5091961;28;20891;-55
2021/03/16 02:42:42;;;;;;;10.25;4.55;;;-1.70;99.90;;;;;;5073318;28;20868;-57
2021/03/16 02:45:09;;;;;;;9.02;4.05;;;-1.70;99.90;;;;;;5055939;28;20872;-57
2021/03/16 02:47:36;;;;;;;8.50;4.20;;;-1.60;99.90;;;;;;5090937;28;20881;-57
2021/03/16 02:50:03;;;;;;;10.20;3.97;;;-1.60;99.90;;;;;;5071454;28;20392;-57
2021/03/16 02:52:29;;;;;;;9.57;4.30;;;-1.60;99.90;;;;;;5091112;28;20400;-57
2021/03/16 02:54:55;;;;;;;11.38;4.30;;;-1.70;99.90;;;;;;5090761;28;20396;-54
2021/03/16 02:57:21;;;;;;;10.50;4.63;;;-1.60;99.90;;;;;;5055995;28;20416;-56
2021/03/16 02:59:48;;;;;;;11.07;4.93;;;-1.60;99.90;;;;;;5072850;28;20892;-55
2021/03/16 03:02:14;;;;;;;10.53;4.47;;;-1.60;99.90;;;;;;5055493;28;20915;-56
2021/03/16 03:04:45;;;;;;;9.33;4.40;;;-1.70;99.90;;;;;;5073038;28;20880;-55
2021/03/16 03:07:11;;;;;;;10.55;4.53;;;-1.70;99.90;;;;;;5073367;28;20377;-57
2021/03/16 03:09:38;;;;;;;14.48;4.70;;;-1.70;99.90;;;;;;5072476;28;20388;-56
2021/03/16 03:12:08;;;;;;;10.95;4.75;;;-1.70;99.90;;;;;;5090850;28;20792;-54
2021/03/16 03:14:38;;;;;;;11.38;4.85;;;-1.70;99.90;;;;;;5089602;28;20413;-56
2021/03/16 03:17:04;;;;;;;9.13;4.40;;;-1.70;99.90;;;;;;5090212;28;20406;-57
2021/03/16 03:19:31;;;;;;;11.75;4.75;;;-1.70;99.90;;;;;;5090576;28;20384;-55
2021/03/16 03:22:08;;;;;;;10.45;4.40;;;-1.70;99.90;;;;;;5091471;28;20384;-55
2021/03/16 03:24:39;;;;;;;13.27;4.88;;;-1.70;99.90;;;;;;5072696;28;20744;-56
2021/03/16 03:27:32;;;;;;;13.13;5.68;;;-1.70;99.90;;;;;;5089843;28;20726;-56
2021/03/16 03:29:59;;;;;;;14.07;5.90;;;-1.80;99.90;;;;;;5067024;28;20462;-53
2021/03/16 03:32:27;;;;;;;13.50;5.88;;;-1.80;99.90;;;;;;5072845;28;20372;-55
2021/03/16 03:34:53;;;;;;;12.80;4.95;;;-1.70;99.90;;;;;;5090540;28;20941;-56
2021/03/16 03:37:21;;;;;;;11.60;5.20;;;-1.60;99.90;;;;;;5089731;28;20423;-55
2021/03/16 03:39:47;;;;;;;10.37;4.70;;;-1.50;99.90;;;;;;5072274;28;20388;-55
2021/03/16 03:42:15;;;;;;;11.10;5.05;;;-1.50;99.90;;;;;;5090182;28;20645;-56
2021/03/16 03:44:41;;;;;;;9.85;4.95;;;-1.60;99.90;;;;;;5089076;28;20408;-56
2021/03/16 03:47:09;;;;;;;11.50;5.07;;;-1.60;99.90;;;;;;5055613;28;20383;-54
2021/03/16 03:49:35;;;;;;;9.40;5.10;;;-1.60;99.90;;;;;;5072253;28;20725;-56
2021/03/16 03:52:02;;;;;;;12.95;4.60;;;-1.70;99.90;;;;;;5055417;28;20888;-57
2021/03/16 03:54:28;;;;;;;11.10;5.28;;;-1.80;99.90;;;;;;5072468;28;20387;-51
2021/03/16 03:56:54;;;;;;;17.33;5.90;;;-1.80;99.90;;;;;;5071771;28;20408;-54
2021/03/16 03:59:20;;;;;;;13.90;6.60;;;-1.90;99.90;;;;;;5055685;28;20383;-54
2021/03/16 04:01:46;;;;;;;11.80;5.88;;;-1.80;99.90;;;;;;5072398;28;20380;-53
2021/03/16 04:04:13;;;;;;;13.05;5.45;;;-1.80;99.90;;;;;;5055615;28;20379;-54
2021/03/16 04:06:39;;;;;;;10.27;5.30;;;-1.70;99.90;;;;;;5072234;28;20380;-55
2021/03/16 04:09:05;;;;;;;13.77;5.43;;;-1.80;99.90;;;;;;5089166;28;20377;-55
2021/03/16 04:11:31;;;;;;;12.13;5.33;;;-1.80;99.90;;;;;;5070185;28;20396;-53
2021/03/16 04:13:57;;;;;;;12.33;5.47;;;-1.80;99.90;;;;;;5089825;28;20395;-54
2021/03/16 04:16:23;;;;;;;11.50;5.30;;;-1.90;99.90;;;;;;5088061;28;20419;-55
2021/03/16 04:18:50;;;;;;;10.52;5.25;;;-1.90;99.90;;;;;;5068582;28;20380;-53
2021/03/16 04:21:16;;;;;;;12.15;5.63;;;-1.90;99.90;;;;;;5071563;28;20403;-55
2021/03/16 04:23:42;;;;;;;15.35;5.70;;;-1.90;99.90;;;;;;5071970;28;20440;-54
2021/03/16 04:26:08;;;;;;;8.68;5.00;;;-1.90;99.90;;;;;;5089519;28;20395;-54
2021/03/16 04:28:35;;;;;;;11.10;5.07;;;-1.90;99.90;;;;;;5088205;28;20896;-55
2021/03/16 04:31:01;;;;;;;11.73;4.70;;;-1.90;99.90;;;;;;5071611;28;20397;-55
2021/03/16 04:33:27;;;;;;;9.82;4.60;;;-2.00;99.90;;;;;;5089072;28;20395;-57
2021/03/16 04:35:53;;;;;;;9.00;4.70;;;-2.00;99.90;;;;;;5086793;28;20388;-56
2021/03/16 04:38:19;;;;;;;10.50;5.00;;;-2.00;99.90;;;;;;5090798;28;20411;-57
2021/03/16 04:40:45;;;;;;;10.40;5.45;;;-2.00;99.90;;;;;;5094382;28;20376;-57
2021/03/16 04:43:12;;;;;;;15.20;5.72;;;-2.00;99.90;;;;;;5094594;28;20369;-55
2021/03/16 04:45:38;;;;;;;10.45;4.88;;;-2.00;99.90;;;;;;5093117;28;20872;-56
2021/03/16 04:48:04;;;;;;;10.43;5.00;;;-2.00;99.90;;;;;;5093356;28;20384;-54
2021/03/16 04:50:30;;;;;;;12.55;5.20;;;-2.00;99.90;;;;;;5093338;28;20388;-56
2021/03/16 04:52:56;;;;;;;8.18;4.50;;;-2.00;99.90;;;;;;5094133;28;20380;-55
2021/03/16 04:55:23;;;;;;;10.57;4.70;;;-2.00;99.90;;;;;;5093942;28;20380;-52
2021/03/16 04:57:49;;;;;;;13.05;5.40;;;-2.10;99.90;;;;;;5092809;28;20424;-56
2021/03/16 05:00:16;;;;;;;10.40;5.05;;;-2.10;99.90;;;;;;5093353;28;20376;-56
2021/03/16 05:02:42;;;;;;;9.27;4.87;;;-2.10;99.90;;;;;;5093797;28;20434;-57
2021/03/16 05:05:09;;;;;;;11.20;4.60;;;-2.00;99.90;;;;;;5093656;28;20376;-56
2021/03/16 05:07:35;;;;;;;11.75;5.10;;;-2.10;99.90;;;;;;5093177;28;20380;-57
2021/03/16 05:10:01;;;;;;;10.65;4.70;;;-2.10;99.90;;;;;;5092657;28;20395;-56
2021/03/16 05:12:27;;;;;;;10.07;4.80;;;-2.10;99.90;;;;;;5093009;28;20360;-56
2021/03/16 05:14:53;;;;;;;13.05;5.40;;;-2.10;99.90;;;;;;5091848;28;20404;-55
2021/03/16 05:17:19;;;;;;;12.02;5.25;;;-2.10;99.90;;;;;;5092002;28;20415;-56
2021/03/16 05:19:45;;;;;;;12.17;5.10;;;-2.10;99.90;;;;;;5091862;28;20381;-53
2021/03/16 05:22:12;;;;;;;9.13;5.15;;;-2.10;99.90;;;;;;5090465;28;20478;-55
2021/03/16 05:24:38;;;;;;;10.52;4.72;;;-2.10;99.90;;;;;;5090804;28;20380;-54
2021/03/16 05:27:04;;;;;;;9.00;4.63;;;-2.10;99.90;;;;;;5073793;28;20380;-53
2021/03/16 05:29:30;;;;;;;9.93;4.60;;;-2.10;99.90;;;;;;5091404;28;20408;-56
2021/03/16 05:31:56;;;;;;;8.88;4.70;;;-2.00;99.90;;;;;;5092385;28;20373;-53
2021/03/16 05:34:23;;;;;;;15.00;4.78;;;-2.00;99.90;;;;;;5092115;28;20388;-55
2021/03/16 05:36:49;;;;;;;10.20;4.60;;;-1.90;99.90;;;;;;5073954;28;20414;-56
2021/03/16 05:39:15;;;;;;;10.77;4.35;;;-1.90;99.90;;;;;;5074260;28;20380;-54
2021/03/16 05:41:41;;;;;;;9.90;4.47;;;-1.90;99.90;;;;;;5091291;28;20384;-54
2021/03/16 05:44:08;;;;;;;9.63;4.10;;;-2.00;99.90;;;;;;5074139;28;20372;-55
2021/03/16 05:46:37;;;;;;;12.50;4.80;;;-2.00;99.90;;;;;;5091493;28;20388;-55
2021/03/16 05:49:05;;;;;;;15.07;5.18;;;-2.10;99.90;;;;;;5091428;28;20376;-56
2021/03/16 05:51:33;;;;;;;13.65;5.05;;;-2.10;99.90;;;;;;5090915;28;20725;-54
2021/03/16 05:53:59;;;;;;;8.98;5.15;;;-2.00;99.90;;;;;;5075376;28;20740;-54
2021/03/16 05:56:25;;;;;;;15.57;4.88;;;-2.00;99.90;;;;;;5073987;28;20411;-56
2021/03/16 05:58:52;;;;;;;11.37;4.80;;;-2.00;99.90;;;;;;5092903;28;20857;-54
2021/03/16 06:01:18;;;;;;;16.15;5.20;;;-1.90;99.90;;;;;;5092460;28;20420;-55
2021/03/16 06:03:47;;;;;;;10.80;4.15;;;-1.80;99.90;;;;;;5091617;28;20399;-56
2021/03/16 06:06:14;;;;;;;11.90;4.70;;;-1.70;99.90;;;;;;5074219;28;20389;-55
2021/03/16 06:08:41;;;;;;;13.82;4.32;;;-1.70;99.90;;;;;;5091899;28;20424;-56
2021/03/16 06:11:07;;;;;;;15.98;4.78;;;-1.60;99.90;;;;;;5091943;28;20399;-55
2021/03/16 06:13:34;;;;;;;13.10;4.50;;;-1.60;99.90;;;;;;5092440;28;20380;-56
2021/03/16 06:16:10;;;;;;;18.05;4.80;;;-1.50;99.90;;;;;;5073477;28;20597;-53
2021/03/16 06:18:40;;;;;;;10.25;4.15;;;-1.40;99.90;;;;;;5076108;28;20375;-56
2021/03/16 06:21:07;;;;;;;17.48;4.43;;;-1.40;99.90;;;;;;5092951;28;20377;-54
2021/03/16 06:23:34;;;;;;;16.48;4.57;;;-1.40;99.90;;;;;;5074465;28;20869;-53
2021/03/16 06:26:01;;;;;;;18.60;4.30;;;-1.30;99.90;;;;;;5091589;28;20400;-55
2021/03/16 06:28:34;;;;;;;15.95;4.72;;;-1.20;99.90;;;;;;5088358;28;20407;-53
2021/03/16 06:31:00;;;;;;;14.45;4.30;;;-1.20;99.90;;;;;;5091699;28;20753;-52
2021/03/16 06:33:28;;;;;;;11.53;4.13;;;-1.10;99.90;;;;;;5091304;28;20383;-50
2021/03/16 06:36:05;;;;;;;18.55;4.90;;;-1.00;99.90;;;;;;5073326;28;20387;-51
2021/03/16 06:38:32;;;;;;;17.35;4.88;;;-0.90;99.90;;;;;;5091667;28;20403;-53
2021/03/16 06:41:34;;;;;;;13.88;4.63;;;-0.80;99.90;;;;;;5091180;28;20384;-52
2021/03/16 06:44:02;;;;;;;16.38;4.85;;;-0.70;99.90;;;;;;4984845;28;20748;-53
2021/03/16 06:46:38;;;;;;;10.75;3.97;;;-0.60;99.90;;;;;;5052833;28;20396;-51
2021/03/16 06:49:15;;;;;;;15.20;4.78;;;-0.40;99.90;;;;;;5071926;28;20388;-51
2021/03/16 06:51:41;;;;;;;11.27;4.22;;;-0.30;99.90;;;;;;5089846;28;20404;-54
2021/03/16 06:54:08;;;;;;;11.55;4.30;;;-0.20;99.90;;;;;;5072651;28;20713;-53
2021/03/16 06:56:34;;;;;;;12.98;4.32;;;-0.10;99.90;;;;;;5072820;28;20419;-53
2021/03/16 06:59:01;;;;;;;12.43;3.20;;;0.00;99.90;;;;;;5090810;28;20742;-51
2021/03/16 07:01:34;;;;;;;11.00;3.75;;;0.10;99.90;;;;;;5090304;28;20392;-50
2021/03/16 07:04:20;;;;;;;15.68;4.03;;;0.30;99.90;;;;;;5090751;28;20387;-51
2021/03/16 07:06:47;;;;;;;17.63;4.00;;;0.50;99.90;;;;;;5090232;28;20868;-54
2021/03/16 07:09:14;;;;;;;21.65;4.45;;;0.70;99.90;;;;;;5090566;28;20817;-51
2021/03/16 07:11:45;;;;;;;16.23;3.90;;;0.90;99.90;;;;;;5089881;28;20397;-53
2021/03/16 07:14:13;;;;;;;17.05;4.47;;;1.00;99.90;;;;;;5088383;28;20824;-54
2021/03/16 07:16:39;;;;;;;29.05;4.53;;;1.10;99.90;;;;;;5071247;28;20400;-51
2021/03/16 07:19:06;;;;;;;21.98;4.90;;;1.30;99.90;;;;;;5072169;28;20376;-52
2021/03/16 07:21:42;;;;;;;20.02;4.50;;;1.30;99.90;;;;;;5090531;28;20403;-54
2021/03/16 07:24:09;;;;;;;14.95;4.30;;;1.50;99.90;;;;;;5090248;28;20384;-52
2021/03/16 07:26:36;;;;;;;20.27;4.25;;;1.50;99.90;;;;;;5072862;28;20399;-55
2021/03/16 07:29:04;;;;;;;18.60;4.13;;;1.80;99.90;;;;;;5089673;28;20397;-53
2021/03/16 07:31:33;;;;;;;18.27;3.60;;;1.90;99.90;;;;;;5087456;28;20385;-54
2021/03/16 07:34:06;;;;;;;27.00;4.00;;;2.10;99.90;;;;;;5088245;28;20395;-53
2021/03/16 07:36:33;;;;;;;19.77;4.00;;;2.20;99.90;;;;;;5088154;28;21861;-56
2021/03/16 07:39:00;;;;;;;19.10;3.90;;;2.50;99.90;;;;;;5089730;28;20737;-56
2021/03/16 07:41:27;;;;;;;25.80;4.30;;;2.80;99.90;;;;;;5070831;28;20396;-56
2021/03/16 07:44:10;;;;;;;14.60;3.22;;;3.00;99.90;;;;;;5088680;28;20385;-55
2021/03/16 07:46:44;;;;;;;14.63;3.35;;;3.30;99.90;;;;;;5086331;28;20400;-56
2021/03/16 07:49:12;;;;;;;15.13;3.83;;;3.30;99.90;;;;;;5088278;28;20714;-54
2021/03/16 07:51:43;;;;;;;22.13;4.75;;;3.50;99.90;;;;;;5071320;28;20381;-54
2021/03/16 07:54:10;;;;;;;26.98;4.80;;;3.70;99.90;;;;;;5088433;28;20396;-56
2021/03/16 07:56:37;;;;;;;21.52;4.57;;;4.10;99.90;;;;;;5070887;28;20384;-55
2021/03/16 07:59:04;;;;;;;27.02;4.10;;;4.30;99.90;;;;;;5088693;28;20392;-56
2021/03/16 08:01:30;;;;;;;22.98;4.70;;;4.40;99.90;;;;;;5088635;28;20392;-54
2021/03/16 08:04:04;;;;;;;16.00;3.67;;;4.30;99.90;;;;;;5070562;28;20396;-56
2021/03/16 08:06:31;;;;;;;21.65;4.10;;;4.40;99.90;;;;;;5088450;28;20399;-53
2021/03/16 08:08:57;;;;;;;20.63;4.55;;;4.50;99.90;;;;;;5088850;28;20926;-54
2021/03/16 08:11:34;;;;;;;18.87;3.47;;;4.70;99.90;;;;;;5089451;28;20876;-53
2021/03/16 08:14:01;;;;;;;29.52;3.55;;;5.40;99.90;;;;;;5071444;28;20388;-53
2021/03/16 08:16:43;;;;;;;24.48;3.80;;;5.40;99.90;;;;;;5087743;28;20393;-52
2021/03/16 08:19:14;;;;;;;14.70;3.22;;;5.30;99.90;;;;;;5070305;28;20401;-53
2021/03/16 08:21:43;;;;;;;26.13;4.55;;;5.20;99.90;;;;;;5089849;28;20376;-51
2021/03/16 08:24:11;;;;;;;21.00;3.70;;;5.50;99.90;;;;;;5089432;28;20383;-51
2021/03/16 08:26:44;;;;;;;30.77;5.00;;;6.30;99.90;;;;;;5089808;28;20896;-53
2021/03/16 08:29:10;;;;;;;30.03;3.87;;;6.80;99.90;;;;;;5089239;28;20400;-55
2021/03/16 08:31:37;;;;;;;18.77;3.90;;;7.10;99.90;;;;;;5090104;28;20740;-52
2021/03/16 08:34:03;;;;;;;23.10;4.05;;;6.90;99.90;;;;;;5054604;28;20380;-52
2021/03/16 08:36:42;;;;;;;20.65;3.65;;;6.80;99.90;;;;;;5088746;28;20726;-53
2021/03/16 08:39:09;;;;;;;12.90;2.45;;;7.00;99.90;;;;;;5080900;28;20412;-51
2021/03/16 08:41:35;;;;;;;17.80;2.58;;;7.20;99.90;;;;;;5087209;28;20387;-54
2021/03/16 08:44:01;;;;;;;10.48;2.22;;;7.10;99.90;;;;;;5089807;28;20844;-55
2021/03/16 08:46:31;;;;;;;44.70;4.65;;;7.20;99.90;;;;;;5070664;28;20411;-51
2021/03/16 08:48:58;;;;;;;19.35;3.20;;;7.50;99.90;;;;;;5089073;28;20376;-52
2021/03/16 08:51:28;;;;;;;11.98;2.92;;;7.60;99.90;;;;;;5088374;28;20392;-54
2021/03/16 08:53:54;;;;;;;12.98;2.30;;;7.70;99.90;;;;;;5087226;28;20372;-53
2021/03/16 08:56:21;;;;;;;14.32;2.20;;;7.70;99.90;;;;;;5088816;28;20395;-55
2021/03/16 08:58:47;;;;;;;12.45;2.33;;;7.60;99.90;;;;;;5070795;28;20745;-53
2021/03/16 09:01:27;;;;;;;16.23;2.53;;;7.90;99.40;;;;;;5089157;28;20395;-54
2021/03/16 09:03:53;;;;;;;13.13;2.50;;;8.30;99.20;;;;;;5051840;28;20751;-56
2021/03/16 09:06:20;;;;;;;18.13;3.08;;;8.70;99.80;;;;;;5089528;28;20377;-53
2021/03/16 09:08:52;;;;;;;14.77;2.88;;;9.50;98.10;;;;;;5089582;28;20388;-54
2021/03/16 09:11:32;;;;;;;19.00;2.58;;;9.60;96.00;;;;;;5071222;28;20384;-53
2021/03/16 09:14:12;;;;;;;14.40;2.30;;;10.10;92.90;;;;;;5087254;28;20760;-53
2021/03/16 09:16:42;;;;;;;10.32;2.03;;;10.30;94.10;;;;;;5070483;28;20395;-53
2021/03/16 09:19:10;;;;;;;9.00;2.15;;;11.10;90.50;;;;;;5087581;28;20381;-55
2021/03/16 09:21:36;;;;;;;9.32;1.95;;;11.50;90.20;;;;;;5071470;28;20748;-53
2021/03/16 09:24:04;;;;;;;9.23;1.90;;;11.90;87.20;;;;;;5089626;28;20396;-55
2021/03/16 09:26:30;;;;;;;8.83;1.70;;;12.10;86.10;;;;;;5091682;28;20395;-55
2021/03/16 09:28:58;;;;;;;8.27;1.80;;;12.60;90.30;;;;;;5092010;28;20456;-55
2021/03/16 09:31:25;;;;;;;15.82;2.05;;;12.10;83.20;;;;;;5075150;28;20737;-54
2021/03/16 09:33:51;;;;;;;11.25;2.05;;;11.50;79.40;;;;;;5074583;28;20383;-54
2021/03/16 09:36:26;;;;;;;8.90;1.70;;;11.00;83.50;;;;;;5073848;28;20393;-55
2021/03/16 09:39:01;;;;;;;9.05;1.70;;;11.00;83.90;;;;;;5091745;28;20411;-52
2021/03/16 09:41:27;;;;;;;13.63;2.00;;;10.80;80.80;;;;;;5093574;28;20395;-55
2021/03/16 09:43:53;;;;;;;9.63;1.67;;;11.00;83.00;;;;;;5093417;28;20384;-55
2021/03/16 09:46:19;;;;;;;7.38;1.60;;;11.70;83.30;;;;;;5092053;28;20396;-56
2021/03/16 09:48:55;;;;;;;7.32;1.90;;;12.60;86.80;;;;;;5073545;28;20408;-54
2021/03/16 09:51:25;;;;;;;4.60;1.23;;;13.60;75.20;;;;;;5093151;28;20391;-56
2021/03/16 09:53:55;;;;;;;6.38;1.33;;;13.50;69.70;;;;;;5074388;28;20392;-56
2021/03/16 09:56:33;;;;;;;5.13;1.55;;;14.40;64.00;;;;;;5093368;28;20370;-55
2021/03/16 09:59:02;;;;;;;9.68;1.45;;;12.40;65.60;;;;;;5091666;28;20409;-54
2021/03/16 10:01:28;;;;;;;30.80;2.38;;;12.50;75.30;;;;;;5092458;28;20873;-54
2021/03/16 10:04:01;;;;;;;7.32;1.60;;;13.30;71.70;;;;;;5092676;28;20388;-55
2021/03/16 10:06:37;;;;;;;5.88;1.40;;;13.90;64.10;;;;;;5093415;28;20381;-55
2021/03/16 10:09:19;;;;;;;6.80;1.30;;;13.40;63.50;;;;;;5091468;28;21793;-55
2021/03/16 10:11:45;;;;;;;10.65;1.65;;;13.10;64.10;;;;;;5092534;28;20384;-56
2021/03/16 10:14:12;;;;;;;13.27;1.60;;;14.00;70.00;;;;;;5092636;28;20380;-55
2021/03/16 10:16:39;;;;;;;9.10;1.50;;;14.50;73.20;;;;;;5055391;28;20411;-57
2021/03/16 10:19:05;;;;;;;7.63;1.52;;;14.80;62.30;;;;;;5071741;28;20780;-55
2021/03/16 10:21:35;;;;;;;7.57;1.63;;;14.00;60.10;;;;;;5091404;28;20385;-54
2021/03/16 10:24:04;;;;;;;11.88;1.73;;;12.80;62.00;;;;;;5091968;28;20887;-53
2021/03/16 10:26:31;;;;;;;9.00;1.67;;;12.40;61.50;;;;;;5091919;28;20399;-52
2021/03/16 10:29:08;;;;;;;9.23;1.65;;;12.90;66.70;;;;;;5091034;28;20416;-52
2021/03/16 10:31:34;;;;;;;7.10;1.58;;;13.10;74.20;;;;;;5090358;28;20395;-55
2021/03/16 10:34:00;;;;;;;10.18;1.60;;;13.40;60.00;;;;;;5091941;28;20748;-55
2021/03/16 10:36:30;;;;;;;4.55;1.27;;;14.50;61.20;;;;;;5090009;28;20388;-55
2021/03/16 10:38:56;;;;;;;8.07;1.10;;;15.40;64.40;;;;;;5088723;28;20404;-56
2021/03/16 10:41:22;;;;;;;7.88;1.40;;;16.30;53.80;;;;;;5091749;28;20384;-57
2021/03/16 10:43:48;;;;;;;12.77;1.42;;;15.60;50.50;;;;;;5073909;28;20384;-56
2021/03/16 10:46:14;;;;;;;18.38;1.45;;;14.80;56.90;;;;;;5073253;28;20761;-56
2021/03/16 10:48:40;;;;;;;7.90;1.35;;;15.30;53.70;;;;;;5092012;28;21605;-56
2021/03/16 10:51:07;;;;;;;6.78;1.30;;;15.60;57.50;;;;;;5091219;28;20364;-56
2021/03/16 10:53:33;;;;;;;8.03;1.40;;;16.60;55.70;;;;;;5092497;28;20379;-56
2021/03/16 10:55:59;;;;;;;7.50;1.00;;;17.30;50.80;;;;;;5092115;28;20373;-56
2021/03/16 10:58:25;;;;;;;5.07;1.10;;;17.80;48.80;;;;;;5073033;28;20753;-57
2021/03/16 11:00:51;;;;;;;6.55;1.30;;;17.60;49.10;;;;;;5090577;28;20403;-55
2021/03/16 11:03:17;;;;;;;4.95;1.10;;;16.70;44.40;;;;;;5090973;28;20387;-55
2021/03/16 11:05:44;;;;;;;3.40;0.80;;;17.00;47.90;;;;;;5091314;28;20380;-58
2021/03/16 11:08:10;;;;;;;4.85;1.02;;;18.00;46.80;;;;;;5091717;28;20757;-55
2021/03/16 11:10:36;;;;;;;7.40;0.90;;;18.30;47.30;;;;;;5090875;28;20380;-55
2021/03/16 11:13:02;;;;;;;4.00;0.80;;;18.10;40.80;;;;;;5071962;28;20726;-56
2021/03/16 11:15:28;;;;;;;3.25;0.50;;;18.50;41.40;;;;;;5071318;28;20867;-53
2021/03/16 11:17:54;;;;;;;4.45;0.70;;;18.60;45.20;;;;;;5090043;28;20396;-54
2021/03/16 11:20:21;;;;;;;3.50;0.55;;;18.80;42.10;;;;;;5088908;28;20393;-56
2021/03/16 11:22:47;;;;;;;7.72;1.00;;;18.50;40.20;;;;;;5039026;28;21149;-55
2021/03/16 11:25:13;;;;;;;11.20;1.23;;;18.70;41.10;;;;;;5090486;28;20369;-53
2021/03/16 11:27:39;;;;;;;5.88;0.90;;;18.80;41.80;;;;;;5091411;28;20408;-52
2021/03/16 11:30:06;;;;;;;3.13;0.70;;;18.60;38.70;;;;;;5090672;28;20384;-52
2021/03/16 11:32:33;;;;;;;2.67;0.52;;;18.10;39.30;;;;;;5073222;28;20376;-53
2021/03/16 11:34:59;;;;;;;1.88;0.43;;;18.50;44.80;;;;;;5073248;28;20377;-54
2021/03/16 11:37:25;;;;;;;3.20;0.50;;;17.90;36.70;;;;;;5091248;28;20379;-54
2021/03/16 11:39:52;;;;;;;2.90;0.40;;;18.20;35.30;;;;;;5090457;28;20384;-55
2021/03/16 11:42:18;;;;;;;30.58;1.63;;;18.10;41.80;;;;;;5090151;28;20857;-55
2021/03/16 11:44:44;;;;;;;5.78;1.00;;;18.20;40.10;;;;;;5088859;28;20923;-55
2021/03/16 11:47:11;;;;;;;8.45;1.50;;;18.50;42.60;;;;;;5090183;28;20377;-54
2021/03/16 11:49:37;;;;;;;3.63;0.95;;;19.20;38.30;;;;;;5091183;28;20377;-54
2021/03/16 11:52:04;;;;;;;8.18;1.00;;;19.20;36.20;;;;;;5090279;28;20408;-54
2021/03/16 11:54:30;;;;;;;3.45;0.85;;;20.00;40.20;;;;;;5070896;28;20851;-55
2021/03/16 11:56:56;;;;;;;4.20;0.73;;;20.70;34.20;;;;;;5088610;28;20388;-56
2021/03/16 11:59:22;;;;;;;5.90;0.73;;;20.40;34.30;;;;;;5090263;28;20392;-56
2021/03/16 12:01:49;;;;;;;5.65;0.80;;;19.80;34.20;;;;;;5089093;28;20380;-55
2021/03/16 12:04:15;;;;;;;7.00;0.90;;;19.90;37.80;;;;;;5089220;28;20958;-56
2021/03/16 12:06:41;;;;;;;7.00;0.80;;;20.30;36.80;;;;;;5089154;28;20732;-55
2021/03/16 12:09:08;;;;;;;3.75;0.90;;;19.50;37.70;;;;;;5087906;28;20412;-55
2021/03/16 12:11:34;;;;;;;8.32;0.77;;;18.50;38.80;;;;;;5089349;28;20404;-56
2021/03/16 12:14:01;;;;;;;6.40;0.90;;;18.90;37.20;;;;;;5088828;28;20403;-55
2021/03/16 12:16:27;;;;;;;8.23;1.10;;;17.80;39.60;;;;;;5088468;28;20872;-56
2021/03/16 12:18:53;;;;;;;5.28;1.20;;;18.50;38.40;;;;;;5089705;28;20398;-58
2021/03/16 12:21:19;;;;;;;8.35;0.98;;;17.90;36.80;;;;;;5089860;28;20399;-58
2021/03/16 12:23:46;;;;;;;4.60;1.10;;;18.10;39.20;;;;;;5086706;28;20399;-57
2021/03/16 12:26:12;;;;;;;15.68;1.40;;;16.40;37.90;;;;;;5090634;28;20383;-58
2021/03/16 12:28:38;;;;;;;8.43;1.33;;;16.00;38.90;;;;;;5071988;28;20769;-54
2021/03/16 12:31:04;;;;;;;9.35;1.40;;;14.90;43.60;;;;;;5090353;28;20385;-55
2021/03/16 12:33:30;;;;;;;;;;;15.20;45.00;;;;;;5090806;28;20392;-55
2021/03/16 12:35:56;;;;;;;;;;;14.80;45.90;;;;;;5091786;28;19912;-53
2021/03/16 12:38:22;;;;;;;;;;;14.20;47.30;;;;;;5091759;28;19904;-55
2021/03/16 12:40:48;;;;;;;5.75;1.58;;;14.20;46.90;;;;;;5085224;28;20916;-55
2021/03/16 12:43:14;;;;;;;3.33;1.50;;;14.00;51.40;;;;;;5089269;28;20384;-55
2021/03/16 12:45:42;;;;;;;4.90;1.35;;;15.30;48.90;;;;;;5088838;28;20891;-55
2021/03/16 12:48:11;;;;;;;6.10;1.20;;;16.40;45.60;;;;;;5088541;28;20416;-55
2021/03/16 12:50:37;;;;;;;5.07;1.25;;;17.10;44.70;;;;;;5086897;28;20388;-55
2021/03/16 12:53:04;;;;;;;6.00;1.25;;;17.90;44.20;;;;;;5089151;28;20415;-57
2021/03/16 12:55:31;;;;;;;4.85;1.27;;;16.90;43.30;;;;;;5089784;28;20399;-57
2021/03/16 12:57:58;;;;;;;5.70;1.25;;;16.20;42.20;;;;;;5089363;28;20408;-63
2021/03/16 13:00:25;;;;;;;6.78;1.10;;;17.00;45.40;;;;;;5091545;28;20403;-58